createdAt,value
2022-11-21T00:03:40.389Z,11.63
2022-11-21T00:08:42.083Z,12.75
2022-11-21T00:13:44.323Z,11.10
2022-11-21T00:18:46.039Z,13.70
2022-11-21T00:23:48.093Z,10.88
2022-11-21T00:28:49.815Z,14.90
2022-11-21T00:33:51.559Z,10.40
2022-11-21T00:38:53.256Z,11.80
2022-11-21T00:43:54.934Z,13.15
2022-11-21T00:48:56.674Z,11.70
2022-11-21T00:53:58.385Z,14.03
2022-11-21T00:59:00.097Z,12.10
2022-11-21T01:04:01.827Z,11.27
2022-11-21T01:09:04.081Z,10.63
2022-11-21T01:14:05.971Z,11.88
2022-11-21T01:19:07.701Z,10.87
2022-11-21T01:24:11.714Z,11.40
2022-11-21T01:29:13.390Z,11.43
2022-11-21T01:34:15.270Z,11.32
2022-11-21T01:39:16.976Z,11.07
2022-11-21T01:44:20.652Z,12.93
2022-11-21T01:49:25.564Z,11.50
2022-11-21T01:54:43.014Z,9.85
2022-11-21T02:00:17.034Z,9.37
2022-11-21T02:05:27.931Z,12.73
2022-11-21T02:10:29.666Z,10.63
2022-11-21T02:15:31.441Z,11.32
2022-11-21T02:20:33.322Z,11.23
2022-11-21T02:25:37.317Z,10.55
2022-11-21T02:30:41.041Z,10.90
2022-11-21T02:35:42.844Z,11.52
2022-11-21T02:40:53.576Z,8.40
2022-11-21T02:45:55.313Z,10.30
2022-11-21T02:50:56.996Z,8.68
2022-11-21T02:55:58.669Z,8.70
2022-11-21T03:01:00.622Z,7.60
2022-11-21T03:06:02.352Z,8.63
2022-11-21T03:11:04.072Z,10.30
2022-11-21T03:16:05.769Z,8.98
2022-11-21T03:21:07.480Z,10.50
2022-11-21T03:26:09.350Z,8.47
2022-11-21T03:31:11.086Z,8.23
2022-11-21T03:36:12.751Z,8.83
2022-11-21T03:41:14.486Z,7.85
2022-11-21T03:46:16.196Z,8.68
2022-11-21T03:51:19.055Z,8.50
2022-11-21T03:56:20.859Z,8.55
2022-11-21T04:01:23.074Z,8.93
2022-11-21T04:06:24.935Z,9.18
2022-11-21T04:11:26.640Z,8.17
2022-11-21T04:16:28.376Z,8.60
2022-11-21T04:21:30.214Z,8.10
2022-11-21T04:26:31.919Z,10.60
2022-11-21T04:31:33.622Z,8.82
2022-11-21T04:36:35.354Z,9.07
2022-11-21T04:41:37.356Z,7.90
2022-11-21T04:46:39.053Z,8.93
2022-11-21T04:51:40.751Z,8.10
2022-11-21T04:56:42.429Z,7.43
2022-11-21T05:01:44.139Z,6.28
2022-11-21T05:06:45.823Z,7.47
2022-11-21T05:11:47.558Z,6.60
2022-11-21T05:16:49.258Z,8.45
2022-11-21T05:21:50.954Z,10.03
2022-11-21T05:26:53.854Z,9.48
2022-11-21T05:31:55.922Z,7.80
2022-11-21T05:36:57.678Z,8.57
2022-11-21T05:42:02.948Z,8.50
2022-11-21T05:47:05.133Z,8.98
2022-11-21T05:52:06.815Z,7.72
2022-11-21T05:57:08.505Z,7.43
2022-11-21T06:02:10.200Z,18.33
2022-11-21T06:07:11.963Z,24.45
2022-11-21T06:12:13.683Z,25.10
2022-11-21T06:17:15.409Z,7.78
2022-11-21T06:22:17.120Z,6.87
2022-11-21T06:27:18.870Z,8.38
2022-11-21T06:32:20.631Z,8.40
2022-11-21T06:37:22.429Z,8.45
2022-11-21T06:42:24.207Z,9.95
2022-11-21T06:47:25.867Z,10.83
2022-11-21T06:52:27.583Z,7.57
2022-11-21T06:57:29.979Z,7.57
2022-11-21T07:02:31.753Z,7.97
2022-11-21T07:07:33.527Z,13.30
2022-11-21T07:12:35.774Z,17.40
2022-11-21T07:17:37.496Z,10.70
2022-11-21T07:22:39.541Z,8.13
2022-11-21T07:27:41.315Z,10.15
2022-11-21T07:32:42.977Z,8.10
2022-11-21T07:37:44.682Z,8.53
2022-11-21T07:42:46.565Z,7.57
2022-11-21T07:47:48.273Z,8.37
2022-11-21T07:52:49.933Z,9.52
2022-11-21T07:58:02.466Z,8.60
2022-11-21T08:03:05.191Z,8.98
2022-11-21T08:08:06.996Z,9.02
2022-11-21T08:13:08.792Z,7.60
2022-11-21T08:18:15.421Z,10.33
2022-11-21T08:23:17.162Z,9.05
2022-11-21T08:28:18.872Z,9.43
2022-11-21T08:33:20.552Z,9.47
2022-11-21T08:38:22.325Z,11.30
2022-11-21T08:43:23.997Z,8.45
2022-11-21T08:48:25.765Z,8.20
2022-11-21T08:53:27.482Z,9.52
2022-11-21T08:58:29.257Z,9.80
2022-11-21T09:03:31.631Z,10.00
2022-11-21T09:08:33.467Z,9.27
2022-11-21T09:13:36.019Z,11.10
2022-11-21T09:18:37.708Z,10.30
2022-11-21T09:23:39.399Z,9.33
2022-11-21T09:28:41.423Z,11.02
2022-11-21T09:33:43.204Z,11.20
2022-11-21T09:38:44.917Z,11.93
2022-11-21T09:44:02.202Z,11.40
2022-11-21T09:49:07.619Z,12.25
2022-11-21T09:54:19.671Z,11.93
2022-11-21T09:59:34.373Z,10.50
2022-11-21T10:04:36.118Z,9.73
2022-11-21T10:10:15.255Z,9.50
2022-11-21T10:15:43.223Z,10.18
2022-11-21T10:21:02.677Z,9.57
2022-11-21T10:26:33.957Z,10.55
2022-11-21T10:31:39.858Z,8.17
2022-11-21T10:36:46.231Z,7.93
2022-11-21T10:42:04.085Z,9.00
2022-11-21T10:47:19.993Z,11.48
2022-11-21T10:52:26.056Z,8.50
2022-11-21T10:57:28.750Z,8.45
2022-11-21T11:02:30.390Z,7.07
2022-11-21T11:07:32.337Z,9.13
2022-11-21T11:12:34.159Z,8.73
2022-11-21T11:17:35.898Z,7.55
2022-11-21T11:22:39.470Z,8.18
2022-11-21T11:27:41.273Z,8.07
2022-11-21T11:32:43.046Z,7.90
2022-11-21T11:37:56.595Z,6.30
2022-11-21T11:43:29.133Z,8.27
2022-11-21T11:48:30.967Z,7.72
2022-11-21T11:53:38.864Z,8.20
2022-11-21T11:58:58.346Z,7.37
2022-11-21T12:04:03.405Z,10.93
2022-11-21T12:09:40.447Z,7.28
2022-11-21T12:14:54.136Z,7.78
2022-11-21T12:19:58.300Z,6.43
2022-11-21T12:25:00.020Z,7.80
2022-11-21T12:30:38.675Z,8.43
2022-11-21T12:36:38.544Z,7.65
2022-11-21T12:42:00.264Z,7.13
2022-11-21T12:47:34.361Z,8.17
2022-11-21T12:52:54.044Z,8.95
2022-11-21T12:58:21.200Z,8.27
2022-11-21T13:03:44.289Z,7.85
2022-11-21T13:08:48.089Z,9.30
2022-11-21T13:13:58.399Z,10.18
2022-11-21T13:19:01.527Z,8.83
2022-11-21T13:24:03.300Z,12.45
2022-11-21T13:29:15.474Z,11.60
2022-11-21T13:34:32.224Z,14.63
2022-11-21T13:39:37.510Z,9.13
2022-11-21T13:44:40.006Z,8.70
2022-11-21T13:50:06.663Z,9.18
2022-11-21T13:55:36.153Z,8.93
2022-11-21T14:00:58.419Z,12.53
2022-11-21T14:06:39.789Z,13.53
2022-11-21T14:12:02.952Z,12.90
2022-11-21T14:17:14.261Z,12.65
2022-11-21T14:22:35.129Z,13.23
2022-11-21T14:27:45.178Z,12.68
2022-11-21T14:32:52.583Z,13.07
2022-11-21T14:37:57.771Z,13.30
2022-11-21T14:42:59.440Z,11.87
2022-11-21T14:48:01.159Z,12.18
2022-11-21T14:53:04.523Z,12.65
2022-11-21T14:58:06.384Z,13.50
2022-11-21T15:03:23.273Z,11.63
2022-11-21T15:19:28.354Z,14.50
2022-11-21T15:24:43.593Z,14.75
2022-11-21T15:29:45.471Z,16.50
2022-11-21T15:40:19.822Z,18.33
2022-11-21T15:45:26.316Z,21.23
2022-11-21T15:50:28.096Z,21.13
2022-11-21T15:55:30.346Z,25.00
2022-11-21T15:57:13.499Z,19.53
2022-11-21T16:00:32.042Z,22.60
2022-11-21T16:05:33.719Z,22.83
2022-11-21T16:10:35.549Z,22.73
2022-11-21T16:15:37.258Z,21.15
2022-11-21T16:20:39.022Z,22.13
2022-11-21T16:25:52.734Z,21.55
2022-11-21T16:30:54.472Z,20.70
2022-11-21T16:35:56.720Z,21.08
2022-11-21T16:41:03.489Z,22.42
2022-11-21T16:46:09.532Z,19.57
2022-11-21T16:51:15.450Z,19.83
2022-11-21T16:56:17.319Z,20.10
2022-11-21T17:01:21.735Z,22.08
2022-11-21T17:06:25.879Z,18.10
2022-11-21T17:11:29.571Z,19.60
2022-11-21T17:16:32.177Z,19.60
2022-11-21T17:21:34.343Z,21.00
2022-11-21T17:26:36.583Z,18.35
2022-11-21T17:31:38.329Z,19.52
2022-11-21T17:36:40.089Z,20.38
2022-11-21T17:41:41.794Z,19.53
2022-11-21T17:46:43.505Z,21.00
2022-11-21T17:51:46.108Z,19.42
2022-11-21T17:56:53.809Z,19.77
2022-11-21T18:01:58.333Z,22.75
2022-11-21T18:07:00.084Z,23.58
2022-11-21T18:12:01.872Z,22.95
2022-11-21T18:17:03.744Z,25.50
2022-11-21T18:22:05.465Z,25.83
2022-11-21T18:27:07.130Z,22.92
2022-11-21T18:32:08.815Z,23.90
2022-11-21T18:37:10.529Z,25.08
2022-11-21T18:42:12.255Z,25.83
2022-11-21T18:47:20.487Z,22.38
2022-11-21T18:52:22.706Z,22.17
2022-11-21T18:57:24.433Z,27.00
2022-11-21T19:02:26.112Z,23.90
2022-11-21T19:07:27.841Z,23.27
2022-11-21T19:12:29.565Z,29.10
2022-11-21T19:17:31.242Z,24.38
2022-11-21T19:22:32.921Z,24.50
2022-11-21T19:27:34.619Z,24.58
2022-11-21T19:32:36.280Z,21.37
2022-11-21T19:37:37.992Z,21.43
2022-11-21T19:42:39.762Z,26.45
2022-11-21T19:47:41.464Z,26.35
2022-11-21T19:52:43.249Z,26.53
2022-11-21T19:57:44.927Z,24.58
2022-11-21T20:02:46.733Z,27.70
2022-11-21T20:07:48.477Z,21.77
2022-11-21T20:12:50.340Z,22.65
2022-11-21T20:17:52.437Z,21.63
2022-11-21T20:22:54.214Z,18.73
2022-11-21T20:27:55.963Z,20.80
2022-11-21T20:32:57.694Z,21.63
2022-11-21T20:37:59.384Z,20.70
2022-11-21T20:43:01.052Z,21.52
2022-11-21T20:48:09.738Z,21.02
2022-11-21T20:58:44.147Z,18.25
2022-11-21T21:03:45.863Z,18.17
2022-11-21T21:08:48.182Z,21.58
2022-11-21T21:13:50.454Z,20.85
2022-11-21T21:18:53.467Z,15.73
2022-11-21T21:24:01.460Z,18.27
2022-11-21T21:29:04.089Z,18.38
2022-11-21T21:34:05.999Z,19.10
2022-11-21T21:39:07.741Z,16.67
2022-11-21T21:44:09.490Z,16.05
2022-11-21T21:49:11.886Z,18.48
2022-11-21T21:54:20.069Z,17.38
2022-11-21T21:59:22.019Z,17.70
2022-11-21T22:04:23.992Z,15.23
2022-11-21T22:09:25.791Z,17.00
2022-11-21T22:14:28.137Z,19.43
2022-11-21T22:19:30.706Z,16.80
2022-11-21T22:24:33.009Z,16.33
2022-11-21T22:29:34.845Z,20.75
2022-11-21T22:34:37.117Z,21.85
2022-11-21T22:39:38.838Z,19.67
2022-11-21T22:44:40.577Z,18.33
2022-11-21T22:49:42.566Z,21.92
2022-11-21T22:54:44.735Z,18.00
2022-11-21T22:59:46.556Z,18.90
2022-11-21T23:04:48.276Z,20.98
2022-11-21T23:09:50.038Z,18.83
2022-11-21T23:14:52.612Z,17.40
2022-11-21T23:19:54.333Z,19.33
2022-11-21T23:24:56.151Z,19.80
2022-11-21T23:29:57.880Z,16.40
2022-11-21T23:34:59.612Z,13.90
2022-11-21T23:40:01.332Z,13.45
2022-11-21T23:45:03.090Z,12.55
2022-11-21T23:50:05.793Z,10.60
2022-11-21T23:55:07.732Z,14.02
